sensor_id;sensor_type;location;lat;lon;timestamp;temperature;humidity
8103;DHT22;4094;49.948;11.574;2024-02-26T00:00:41;6.10;63.60
8103;DHT22;4094;49.948;11.574;2024-02-26T00:03:30;6.10;63.60
8103;DHT22;4094;49.948;11.574;2024-02-26T00:06:23;6.00;63.80
8103;DHT22;4094;49.948;11.574;2024-02-26T00:09:13;6.00;64.00
8103;DHT22;4094;49.948;11.574;2024-02-26T00:12:03;5.90;64.00
8103;DHT22;4094;49.948;11.574;2024-02-26T00:14:54;5.90;64.30
8103;DHT22;4094;49.948;11.574;2024-02-26T00:17:45;5.90;64.30
8103;DHT22;4094;49.948;11.574;2024-02-26T00:20:35;5.80;64.40
8103;DHT22;4094;49.948;11.574;2024-02-26T00:23:24;5.80;64.50
8103;DHT22;4094;49.948;11.574;2024-02-26T00:26:14;5.80;64.60
8103;DHT22;4094;49.948;11.574;2024-02-26T00:29:04;5.80;64.70
8103;DHT22;4094;49.948;11.574;2024-02-26T00:31:55;5.80;64.70
8103;DHT22;4094;49.948;11.574;2024-02-26T00:34:44;5.80;64.80
8103;DHT22;4094;49.948;11.574;2024-02-26T00:37:33;5.70;64.80
8103;DHT22;4094;49.948;11.574;2024-02-26T00:40:23;5.70;65.00
8103;DHT22;4094;49.948;11.574;2024-02-26T00:43:12;5.70;64.90
8103;DHT22;4094;49.948;11.574;2024-02-26T00:46:01;5.70;65.10
8103;DHT22;4094;49.948;11.574;2024-02-26T00:48:52;5.70;66.00
8103;DHT22;4094;49.948;11.574;2024-02-26T00:51:41;5.70;65.20
8103;DHT22;4094;49.948;11.574;2024-02-26T00:54:31;5.70;65.20
8103;DHT22;4094;49.948;11.574;2024-02-26T00:57:20;5.60;65.20
8103;DHT22;4094;49.948;11.574;2024-02-26T01:00:14;5.60;65.30
8103;DHT22;4094;49.948;11.574;2024-02-26T01:03:04;5.60;65.50
8103;DHT22;4094;49.948;11.574;2024-02-26T01:05:55;5.60;65.40
8103;DHT22;4094;49.948;11.574;2024-02-26T01:08:46;5.60;65.50
8103;DHT22;4094;49.948;11.574;2024-02-26T01:11:36;5.60;65.50
8103;DHT22;4094;49.948;11.574;2024-02-26T01:14:26;5.60;65.50
8103;DHT22;4094;49.948;11.574;2024-02-26T01:17:15;5.60;65.50
8103;DHT22;4094;49.948;11.574;2024-02-26T01:20:06;5.50;65.50
8103;DHT22;4094;49.948;11.574;2024-02-26T01:22:58;5.50;65.50
8103;DHT22;4094;49.948;11.574;2024-02-26T01:25:48;5.50;65.70
8103;DHT22;4094;49.948;11.574;2024-02-26T01:28:37;5.50;65.80
8103;DHT22;4094;49.948;11.574;2024-02-26T01:31:27;5.50;65.80
8103;DHT22;4094;49.948;11.574;2024-02-26T01:34:16;5.50;65.80
8103;DHT22;4094;49.948;11.574;2024-02-26T01:37:06;5.50;65.80
8103;DHT22;4094;49.948;11.574;2024-02-26T01:39:57;5.50;65.90
8103;DHT22;4094;49.948;11.574;2024-02-26T01:42:52;5.50;66.70
8103;DHT22;4094;49.948;11.574;2024-02-26T01:45:41;5.40;66.00
8103;DHT22;4094;49.948;11.574;2024-02-26T01:48:31;5.40;65.80
8103;DHT22;4094;49.948;11.574;2024-02-26T01:51:20;5.40;65.80
8103;DHT22;4094;49.948;11.574;2024-02-26T01:54:10;5.40;65.90
8103;DHT22;4094;49.948;11.574;2024-02-26T01:57:02;5.40;66.00
8103;DHT22;4094;49.948;11.574;2024-02-26T01:59:52;5.40;66.00
8103;DHT22;4094;49.948;11.574;2024-02-26T02:02:42;5.40;65.90
8103;DHT22;4094;49.948;11.574;2024-02-26T02:05:36;5.30;65.80
8103;DHT22;4094;49.948;11.574;2024-02-26T02:08:30;5.30;65.90
8103;DHT22;4094;49.948;11.574;2024-02-26T02:11:20;5.30;65.90
8103;DHT22;4094;49.948;11.574;2024-02-26T02:14:11;5.30;66.00
8103;DHT22;4094;49.948;11.574;2024-02-26T02:17:00;5.30;66.00
8103;DHT22;4094;49.948;11.574;2024-02-26T02:19:50;5.20;66.00
8103;DHT22;4094;49.948;11.574;2024-02-26T02:22:41;5.20;65.90
8103;DHT22;4094;49.948;11.574;2024-02-26T02:25:30;5.20;66.20
8103;DHT22;4094;49.948;11.574;2024-02-26T02:28:20;5.20;66.60
8103;DHT22;4094;49.948;11.574;2024-02-26T02:31:10;5.20;66.40
8103;DHT22;4094;49.948;11.574;2024-02-26T02:33:59;5.20;66.50
8103;DHT22;4094;49.948;11.574;2024-02-26T02:36:52;5.20;66.60
8103;DHT22;4094;49.948;11.574;2024-02-26T02:39:43;5.20;66.60
8103;DHT22;4094;49.948;11.574;2024-02-26T02:42:32;5.20;66.60
8103;DHT22;4094;49.948;11.574;2024-02-26T02:45:22;5.20;66.60
8103;DHT22;4094;49.948;11.574;2024-02-26T02:48:12;5.20;66.60
8103;DHT22;4094;49.948;11.574;2024-02-26T02:51:02;5.20;66.80
8103;DHT22;4094;49.948;11.574;2024-02-26T02:53:51;5.20;66.80
8103;DHT22;4094;49.948;11.574;2024-02-26T02:56:42;5.20;66.70
8103;DHT22;4094;49.948;11.574;2024-02-26T02:59:31;5.20;66.90
8103;DHT22;4094;49.948;11.574;2024-02-26T03:02:20;5.20;66.90
8103;DHT22;4094;49.948;11.574;2024-02-26T03:05:10;5.20;67.20
8103;DHT22;4094;49.948;11.574;2024-02-26T03:08:00;5.20;67.30
8103;DHT22;4094;49.948;11.574;2024-02-26T03:10:50;5.30;67.50
8103;DHT22;4094;49.948;11.574;2024-02-26T03:13:41;5.30;68.30
8103;DHT22;4094;49.948;11.574;2024-02-26T03:16:31;5.40;67.80
8103;DHT22;4094;49.948;11.574;2024-02-26T03:19:21;5.40;67.80
8103;DHT22;4094;49.948;11.574;2024-02-26T03:22:13;5.40;67.70
8103;DHT22;4094;49.948;11.574;2024-02-26T03:25:03;5.50;67.70
8103;DHT22;4094;49.948;11.574;2024-02-26T03:27:52;5.50;67.50
8103;DHT22;4094;49.948;11.574;2024-02-26T03:30:42;5.50;67.30
8103;DHT22;4094;49.948;11.574;2024-02-26T03:33:32;5.60;67.40
8103;DHT22;4094;49.948;11.574;2024-02-26T03:36:21;5.60;67.30
8103;DHT22;4094;49.948;11.574;2024-02-26T03:39:11;5.60;67.00
8103;DHT22;4094;49.948;11.574;2024-02-26T03:42:00;5.60;66.70
8103;DHT22;4094;49.948;11.574;2024-02-26T03:44:50;5.50;66.40
8103;DHT22;4094;49.948;11.574;2024-02-26T03:47:40;5.50;66.40
8103;DHT22;4094;49.948;11.574;2024-02-26T03:50:30;5.50;66.50
8103;DHT22;4094;49.948;11.574;2024-02-26T03:53:19;5.50;66.50
8103;DHT22;4094;49.948;11.574;2024-02-26T03:56:11;5.40;66.70
8103;DHT22;4094;49.948;11.574;2024-02-26T03:59:01;5.40;66.80
8103;DHT22;4094;49.948;11.574;2024-02-26T04:01:50;5.40;66.80
8103;DHT22;4094;49.948;11.574;2024-02-26T04:04:41;5.40;66.90
8103;DHT22;4094;49.948;11.574;2024-02-26T04:07:30;5.30;66.90
8103;DHT22;4094;49.948;11.574;2024-02-26T04:10:20;5.40;67.10
8103;DHT22;4094;49.948;11.574;2024-02-26T04:13:10;5.30;67.10
8103;DHT22;4094;49.948;11.574;2024-02-26T04:15:59;5.30;67.20
8103;DHT22;4094;49.948;11.574;2024-02-26T04:18:49;5.30;67.30
8103;DHT22;4094;49.948;11.574;2024-02-26T04:21:41;5.30;67.30
8103;DHT22;4094;49.948;11.574;2024-02-26T04:24:30;5.30;67.50
8103;DHT22;4094;49.948;11.574;2024-02-26T04:27:19;5.30;67.50
8103;DHT22;4094;49.948;11.574;2024-02-26T04:30:09;5.20;67.50
8103;DHT22;4094;49.948;11.574;2024-02-26T04:32:58;5.30;67.70
8103;DHT22;4094;49.948;11.574;2024-02-26T04:35:48;5.20;67.80
8103;DHT22;4094;49.948;11.574;2024-02-26T04:38:38;5.30;67.80
8103;DHT22;4094;49.948;11.574;2024-02-26T04:41:28;5.30;67.90
8103;DHT22;4094;49.948;11.574;2024-02-26T04:44:17;5.30;68.00
8103;DHT22;4094;49.948;11.574;2024-02-26T04:47:06;5.30;68.10
8103;DHT22;4094;49.948;11.574;2024-02-26T04:49:56;5.30;68.20
8103;DHT22;4094;49.948;11.574;2024-02-26T04:52:45;5.30;68.20
8103;DHT22;4094;49.948;11.574;2024-02-26T04:55:36;5.40;68.20
8103;DHT22;4094;49.948;11.574;2024-02-26T04:58:25;5.40;68.10
8103;DHT22;4094;49.948;11.574;2024-02-26T05:01:15;5.40;68.00
8103;DHT22;4094;49.948;11.574;2024-02-26T05:04:05;5.40;68.10
8103;DHT22;4094;49.948;11.574;2024-02-26T05:06:54;5.40;68.10
8103;DHT22;4094;49.948;11.574;2024-02-26T05:09:46;5.40;68.00
8103;DHT22;4094;49.948;11.574;2024-02-26T05:12:39;5.40;68.00
8103;DHT22;4094;49.948;11.574;2024-02-26T05:15:30;5.40;68.10
8103;DHT22;4094;49.948;11.574;2024-02-26T05:18:20;5.40;68.10
8103;DHT22;4094;49.948;11.574;2024-02-26T05:21:10;5.40;68.00
8103;DHT22;4094;49.948;11.574;2024-02-26T05:24:00;5.30;67.90
8103;DHT22;4094;49.948;11.574;2024-02-26T05:26:49;5.30;67.90
8103;DHT22;4094;49.948;11.574;2024-02-26T05:29:40;5.30;67.90
8103;DHT22;4094;49.948;11.574;2024-02-26T05:32:29;5.30;68.00
8103;DHT22;4094;49.948;11.574;2024-02-26T05:35:18;5.30;68.10
8103;DHT22;4094;49.948;11.574;2024-02-26T05:38:08;5.30;68.10
8103;DHT22;4094;49.948;11.574;2024-02-26T05:40:57;5.30;68.40
8103;DHT22;4094;49.948;11.574;2024-02-26T05:43:47;5.30;68.50
8103;DHT22;4094;49.948;11.574;2024-02-26T05:46:37;5.30;68.60
8103;DHT22;4094;49.948;11.574;2024-02-26T05:49:27;5.30;68.50
8103;DHT22;4094;49.948;11.574;2024-02-26T05:52:16;5.30;68.50
8103;DHT22;4094;49.948;11.574;2024-02-26T05:55:06;5.30;68.50
8103;DHT22;4094;49.948;11.574;2024-02-26T05:57:55;5.30;68.50
8103;DHT22;4094;49.948;11.574;2024-02-26T06:00:44;5.30;68.60
8103;DHT22;4094;49.948;11.574;2024-02-26T06:03:37;5.30;68.80
8103;DHT22;4094;49.948;11.574;2024-02-26T06:06:27;5.30;68.90
8103;DHT22;4094;49.948;11.574;2024-02-26T06:09:16;5.30;69.00
8103;DHT22;4094;49.948;11.574;2024-02-26T06:12:07;5.30;69.10
8103;DHT22;4094;49.948;11.574;2024-02-26T06:14:56;5.40;69.20
8103;DHT22;4094;49.948;11.574;2024-02-26T06:17:49;5.40;69.30
8103;DHT22;4094;49.948;11.574;2024-02-26T06:20:41;5.40;69.20
8103;DHT22;4094;49.948;11.574;2024-02-26T06:23:31;5.40;69.20
8103;DHT22;4094;49.948;11.574;2024-02-26T06:26:20;5.50;70.00
8103;DHT22;4094;49.948;11.574;2024-02-26T06:29:10;5.50;69.30
8103;DHT22;4094;49.948;11.574;2024-02-26T06:32:00;5.50;69.30
8103;DHT22;4094;49.948;11.574;2024-02-26T06:34:54;5.50;69.60
8103;DHT22;4094;49.948;11.574;2024-02-26T06:37:46;5.60;69.60
8103;DHT22;4094;49.948;11.574;2024-02-26T06:40:38;5.60;69.70
8103;DHT22;4094;49.948;11.574;2024-02-26T06:43:28;5.60;69.60
8103;DHT22;4094;49.948;11.574;2024-02-26T06:46:17;5.70;69.70
8103;DHT22;4094;49.948;11.574;2024-02-26T06:49:09;5.80;69.70
8103;DHT22;4094;49.948;11.574;2024-02-26T06:52:00;5.80;69.50
8103;DHT22;4094;49.948;11.574;2024-02-26T06:54:51;5.80;69.40
8103;DHT22;4094;49.948;11.574;2024-02-26T06:57:41;5.90;69.40
8103;DHT22;4094;49.948;11.574;2024-02-26T07:00:30;5.80;69.30
8103;DHT22;4094;49.948;11.574;2024-02-26T07:03:20;5.90;69.40
8103;DHT22;4094;49.948;11.574;2024-02-26T07:06:13;6.00;69.40
8103;DHT22;4094;49.948;11.574;2024-02-26T07:09:03;6.00;70.20
8103;DHT22;4094;49.948;11.574;2024-02-26T07:11:54;6.00;69.40
8103;DHT22;4094;49.948;11.574;2024-02-26T07:14:47;6.10;69.50
8103;DHT22;4094;49.948;11.574;2024-02-26T07:17:37;6.10;69.50
8103;DHT22;4094;49.948;11.574;2024-02-26T07:20:29;6.20;69.60
8103;DHT22;4094;49.948;11.574;2024-02-26T07:23:19;6.20;69.60
8103;DHT22;4094;49.948;11.574;2024-02-26T07:26:08;6.30;69.60
8103;DHT22;4094;49.948;11.574;2024-02-26T07:29:01;6.40;69.70
8103;DHT22;4094;49.948;11.574;2024-02-26T07:31:50;6.40;69.70
8103;DHT22;4094;49.948;11.574;2024-02-26T07:34:39;6.50;69.70
8103;DHT22;4094;49.948;11.574;2024-02-26T07:37:30;6.60;69.90
8103;DHT22;4094;49.948;11.574;2024-02-26T07:40:19;6.70;69.90
8103;DHT22;4094;49.948;11.574;2024-02-26T07:43:08;6.80;69.90
8103;DHT22;4094;49.948;11.574;2024-02-26T07:45:59;6.90;70.00
8103;DHT22;4094;49.948;11.574;2024-02-26T07:48:48;7.00;70.00
8103;DHT22;4094;49.948;11.574;2024-02-26T07:51:38;7.00;69.90
8103;DHT22;4094;49.948;11.574;2024-02-26T07:54:27;7.10;70.00
8103;DHT22;4094;49.948;11.574;2024-02-26T07:57:17;7.20;69.90
8103;DHT22;4094;49.948;11.574;2024-02-26T08:00:07;7.30;69.80
8103;DHT22;4094;49.948;11.574;2024-02-26T08:02:59;7.40;69.70
8103;DHT22;4094;49.948;11.574;2024-02-26T08:05:48;7.50;69.50
8103;DHT22;4094;49.948;11.574;2024-02-26T08:08:38;7.60;69.30
8103;DHT22;4094;49.948;11.574;2024-02-26T08:11:28;7.60;69.20
8103;DHT22;4094;49.948;11.574;2024-02-26T08:14:17;7.70;69.30
8103;DHT22;4094;49.948;11.574;2024-02-26T08:17:07;7.80;69.30
8103;DHT22;4094;49.948;11.574;2024-02-26T08:19:57;7.80;69.20
8103;DHT22;4094;49.948;11.574;2024-02-26T08:22:49;7.80;69.00
8103;DHT22;4094;49.948;11.574;2024-02-26T08:25:39;7.90;69.20
8103;DHT22;4094;49.948;11.574;2024-02-26T08:28:28;7.90;69.20
8103;DHT22;4094;49.948;11.574;2024-02-26T08:31:17;8.00;69.20
8103;DHT22;4094;49.948;11.574;2024-02-26T08:34:06;8.00;69.10
8103;DHT22;4094;49.948;11.574;2024-02-26T08:36:57;8.10;69.00
8103;DHT22;4094;49.948;11.574;2024-02-26T08:39:47;8.10;69.10
8103;DHT22;4094;49.948;11.574;2024-02-26T08:42:36;8.20;69.30
8103;DHT22;4094;49.948;11.574;2024-02-26T08:45:25;8.20;69.10
8103;DHT22;4094;49.948;11.574;2024-02-26T08:48:18;8.30;68.90
8103;DHT22;4094;49.948;11.574;2024-02-26T08:51:09;8.30;68.80
8103;DHT22;4094;49.948;11.574;2024-02-26T08:54:01;8.30;68.80
8103;DHT22;4094;49.948;11.574;2024-02-26T08:56:51;8.30;68.90
8103;DHT22;4094;49.948;11.574;2024-02-26T08:59:41;8.40;68.90
8103;DHT22;4094;49.948;11.574;2024-02-26T09:02:30;8.50;69.00
8103;DHT22;4094;49.948;11.574;2024-02-26T09:05:20;8.50;69.20
8103;DHT22;4094;49.948;11.574;2024-02-26T09:08:10;8.60;69.30
8103;DHT22;4094;49.948;11.574;2024-02-26T09:11:01;8.70;69.20
8103;DHT22;4094;49.948;11.574;2024-02-26T09:13:51;8.80;69.00
8103;DHT22;4094;49.948;11.574;2024-02-26T09:16:41;8.90;68.90
8103;DHT22;4094;49.948;11.574;2024-02-26T09:19:30;9.00;68.80
8103;DHT22;4094;49.948;11.574;2024-02-26T09:22:20;9.10;68.90
8103;DHT22;4094;49.948;11.574;2024-02-26T09:25:09;9.20;68.90
8103;DHT22;4094;49.948;11.574;2024-02-26T09:28:00;9.30;68.90
8103;DHT22;4094;49.948;11.574;2024-02-26T09:30:49;9.40;68.60
8103;DHT22;4094;49.948;11.574;2024-02-26T09:33:39;9.60;68.50
8103;DHT22;4094;49.948;11.574;2024-02-26T09:36:29;9.70;68.20
8103;DHT22;4094;49.948;11.574;2024-02-26T09:39:19;9.80;68.00
8103;DHT22;4094;49.948;11.574;2024-02-26T09:42:12;9.90;67.70
8103;DHT22;4094;49.948;11.574;2024-02-26T09:45:05;10.10;67.40
8103;DHT22;4094;49.948;11.574;2024-02-26T09:47:57;10.20;66.70
8103;DHT22;4094;49.948;11.574;2024-02-26T09:50:47;10.30;66.20
8103;DHT22;4094;49.948;11.574;2024-02-26T09:53:37;10.40;66.10
8103;DHT22;4094;49.948;11.574;2024-02-26T09:56:31;10.60;66.20
8103;DHT22;4094;49.948;11.574;2024-02-26T09:59:20;10.80;65.30
8103;DHT22;4094;49.948;11.574;2024-02-26T10:02:12;11.00;64.70
8103;DHT22;4094;49.948;11.574;2024-02-26T10:05:03;11.10;63.80
8103;DHT22;4094;49.948;11.574;2024-02-26T10:07:56;11.20;63.80
8103;DHT22;4094;49.948;11.574;2024-02-26T10:10:47;11.30;63.90
8103;DHT22;4094;49.948;11.574;2024-02-26T10:13:37;11.50;64.80
8103;DHT22;4094;49.948;11.574;2024-02-26T10:16:26;11.80;63.30
8103;DHT22;4094;49.948;11.574;2024-02-26T10:19:27;12.10;62.00
8103;DHT22;4094;49.948;11.574;2024-02-26T10:22:17;12.30;60.60
8103;DHT22;4094;49.948;11.574;2024-02-26T10:25:08;12.40;59.80
8103;DHT22;4094;49.948;11.574;2024-02-26T10:28:00;12.60;60.10
8103;DHT22;4094;49.948;11.574;2024-02-26T10:30:51;12.80;59.30
8103;DHT22;4094;49.948;11.574;2024-02-26T10:33:43;13.00;59.60
8103;DHT22;4094;49.948;11.574;2024-02-26T10:36:35;13.20;59.50
8103;DHT22;4094;49.948;11.574;2024-02-26T10:39:39;13.40;59.10
8103;DHT22;4094;49.948;11.574;2024-02-26T10:42:35;13.50;58.50
8103;DHT22;4094;49.948;11.574;2024-02-26T10:45:25;13.60;58.20
8103;DHT22;4094;49.948;11.574;2024-02-26T10:48:15;13.70;58.30
8103;DHT22;4094;49.948;11.574;2024-02-26T10:51:06;13.90;57.80
8103;DHT22;4094;49.948;11.574;2024-02-26T10:53:58;14.10;58.30
8103;DHT22;4094;49.948;11.574;2024-02-26T10:56:50;14.30;58.00
8103;DHT22;4094;49.948;11.574;2024-02-26T10:59:41;14.50;57.00
8103;DHT22;4094;49.948;11.574;2024-02-26T11:02:33;14.80;56.50
8103;DHT22;4094;49.948;11.574;2024-02-26T11:05:23;14.80;55.90
8103;DHT22;4094;49.948;11.574;2024-02-26T11:08:13;14.90;55.50
8103;DHT22;4094;49.948;11.574;2024-02-26T11:11:05;14.90;55.80
8103;DHT22;4094;49.948;11.574;2024-02-26T11:13:55;15.00;55.20
8103;DHT22;4094;49.948;11.574;2024-02-26T11:16:45;15.00;54.40
8103;DHT22;4094;49.948;11.574;2024-02-26T11:19:36;15.00;54.30
8103;DHT22;4094;49.948;11.574;2024-02-26T11:22:27;15.00;54.00
8103;DHT22;4094;49.948;11.574;2024-02-26T11:25:16;14.90;53.90
8103;DHT22;4094;49.948;11.574;2024-02-26T11:28:11;14.90;54.20
8103;DHT22;4094;49.948;11.574;2024-02-26T11:31:02;14.90;54.40
8103;DHT22;4094;49.948;11.574;2024-02-26T11:33:52;14.90;54.40
8103;DHT22;4094;49.948;11.574;2024-02-26T11:36:42;14.90;54.10
8103;DHT22;4094;49.948;11.574;2024-02-26T11:39:31;14.90;54.10
8103;DHT22;4094;49.948;11.574;2024-02-26T11:42:24;14.90;54.40
8103;DHT22;4094;49.948;11.574;2024-02-26T11:45:48;14.90;54.40
8103;DHT22;4094;49.948;11.574;2024-02-26T11:48:39;14.70;53.90
8103;DHT22;4094;49.948;11.574;2024-02-26T11:51:33;14.70;53.50
8103;DHT22;4094;49.948;11.574;2024-02-26T11:54:43;14.50;53.00
8103;DHT22;4094;49.948;11.574;2024-02-26T11:57:38;14.40;53.60
8103;DHT22;4094;49.948;11.574;2024-02-26T12:00:28;14.20;53.10
8103;DHT22;4094;49.948;11.574;2024-02-26T12:03:22;14.10;53.60
8103;DHT22;4094;49.948;11.574;2024-02-26T12:06:12;14.00;53.80
8103;DHT22;4094;49.948;11.574;2024-02-26T12:09:02;13.80;54.10
8103;DHT22;4094;49.948;11.574;2024-02-26T12:11:55;13.70;54.50
8103;DHT22;4094;49.948;11.574;2024-02-26T12:14:52;13.70;55.00
8103;DHT22;4094;49.948;11.574;2024-02-26T12:17:42;13.60;54.20
8103;DHT22;4094;49.948;11.574;2024-02-26T12:20:38;13.60;54.20
8103;DHT22;4094;49.948;11.574;2024-02-26T12:23:28;13.50;54.10
8103;DHT22;4094;49.948;11.574;2024-02-26T12:26:18;13.40;54.40
8103;DHT22;4094;49.948;11.574;2024-02-26T12:29:08;13.40;54.40
8103;DHT22;4094;49.948;11.574;2024-02-26T12:31:57;13.40;54.60
8103;DHT22;4094;49.948;11.574;2024-02-26T12:34:47;13.30;54.60
8103;DHT22;4094;49.948;11.574;2024-02-26T12:37:40;13.20;54.80
8103;DHT22;4094;49.948;11.574;2024-02-26T12:40:31;13.20;54.50
8103;DHT22;4094;49.948;11.574;2024-02-26T12:43:21;13.10;54.50
8103;DHT22;4094;49.948;11.574;2024-02-26T12:46:13;13.10;54.60
8103;DHT22;4094;49.948;11.574;2024-02-26T12:49:03;13.10;54.90
8103;DHT22;4094;49.948;11.574;2024-02-26T12:51:57;13.10;54.50
8103;DHT22;4094;49.948;11.574;2024-02-26T12:54:51;13.10;54.80
8103;DHT22;4094;49.948;11.574;2024-02-26T12:57:41;13.00;55.10
8103;DHT22;4094;49.948;11.574;2024-02-26T13:00:31;13.10;55.30
8103;DHT22;4094;49.948;11.574;2024-02-26T13:03:22;13.00;55.40
8103;DHT22;4094;49.948;11.574;2024-02-26T13:06:12;13.10;55.20
8103;DHT22;4094;49.948;11.574;2024-02-26T13:09:05;13.10;55.00
8103;DHT22;4094;49.948;11.574;2024-02-26T13:11:57;13.10;55.00
8103;DHT22;4094;49.948;11.574;2024-02-26T13:14:47;13.00;55.10
8103;DHT22;4094;49.948;11.574;2024-02-26T13:17:38;13.10;55.30
8103;DHT22;4094;49.948;11.574;2024-02-26T13:20:28;13.10;55.40
8103;DHT22;4094;49.948;11.574;2024-02-26T13:23:20;13.10;55.30
8103;DHT22;4094;49.948;11.574;2024-02-26T13:26:11;13.20;55.20
8103;DHT22;4094;49.948;11.574;2024-02-26T13:29:03;13.30;54.50
8103;DHT22;4094;49.948;11.574;2024-02-26T13:31:58;13.40;54.20
8103;DHT22;4094;49.948;11.574;2024-02-26T13:34:47;13.50;54.10
8103;DHT22;4094;49.948;11.574;2024-02-26T13:37:37;13.60;53.40
8103;DHT22;4094;49.948;11.574;2024-02-26T13:40:28;13.60;53.30
8103;DHT22;4094;49.948;11.574;2024-02-26T13:43:17;13.70;53.80
8103;DHT22;4094;49.948;11.574;2024-02-26T13:46:09;13.80;53.80
8103;DHT22;4094;49.948;11.574;2024-02-26T13:49:01;13.80;53.60
8103;DHT22;4094;49.948;11.574;2024-02-26T13:51:50;13.90;54.00
8103;DHT22;4094;49.948;11.574;2024-02-26T13:54:40;13.90;53.30
8103;DHT22;4094;49.948;11.574;2024-02-26T13:57:29;13.90;52.90
8103;DHT22;4094;49.948;11.574;2024-02-26T14:00:19;14.00;52.80
8103;DHT22;4094;49.948;11.574;2024-02-26T14:03:09;14.00;52.80
8103;DHT22;4094;49.948;11.574;2024-02-26T14:05:59;14.00;52.90
8103;DHT22;4094;49.948;11.574;2024-02-26T14:08:48;14.00;53.10
8103;DHT22;4094;49.948;11.574;2024-02-26T14:11:38;14.00;53.00
8103;DHT22;4094;49.948;11.574;2024-02-26T14:14:27;14.10;53.10
8103;DHT22;4094;49.948;11.574;2024-02-26T14:17:18;14.10;53.20
8103;DHT22;4094;49.948;11.574;2024-02-26T14:20:09;14.10;53.30
8103;DHT22;4094;49.948;11.574;2024-02-26T14:22:59;14.10;53.60
8103;DHT22;4094;49.948;11.574;2024-02-26T14:25:48;14.10;53.70
8103;DHT22;4094;49.948;11.574;2024-02-26T14:28:38;14.10;53.80
8103;DHT22;4094;49.948;11.574;2024-02-26T14:31:27;14.00;54.20
8103;DHT22;4094;49.948;11.574;2024-02-26T14:34:16;14.00;53.60
8103;DHT22;4094;49.948;11.574;2024-02-26T14:37:08;13.90;53.70
8103;DHT22;4094;49.948;11.574;2024-02-26T14:39:58;13.90;53.80
8103;DHT22;4094;49.948;11.574;2024-02-26T14:42:48;13.90;54.20
8103;DHT22;4094;49.948;11.574;2024-02-26T14:45:37;13.80;54.30
8103;DHT22;4094;49.948;11.574;2024-02-26T14:48:27;13.80;54.30
8103;DHT22;4094;49.948;11.574;2024-02-26T14:51:17;13.90;54.50
8103;DHT22;4094;49.948;11.574;2024-02-26T14:54:08;13.90;54.50
8103;DHT22;4094;49.948;11.574;2024-02-26T14:56:57;13.90;54.40
8103;DHT22;4094;49.948;11.574;2024-02-26T14:59:47;13.80;54.00
8103;DHT22;4094;49.948;11.574;2024-02-26T15:02:38;13.90;53.80
8103;DHT22;4094;49.948;11.574;2024-02-26T15:05:27;13.80;53.80
8103;DHT22;4094;49.948;11.574;2024-02-26T15:08:16;13.80;53.40
8103;DHT22;4094;49.948;11.574;2024-02-26T15:11:07;13.80;53.30
8103;DHT22;4094;49.948;11.574;2024-02-26T15:13:56;13.80;53.60
8103;DHT22;4094;49.948;11.574;2024-02-26T15:16:46;13.80;53.60
8103;DHT22;4094;49.948;11.574;2024-02-26T15:19:35;13.70;53.80
8103;DHT22;4094;49.948;11.574;2024-02-26T15:22:25;13.70;53.90
8103;DHT22;4094;49.948;11.574;2024-02-26T15:25:14;13.70;54.00
8103;DHT22;4094;49.948;11.574;2024-02-26T15:28:07;13.70;54.00
8103;DHT22;4094;49.948;11.574;2024-02-26T15:30:58;13.70;54.30
8103;DHT22;4094;49.948;11.574;2024-02-26T15:33:47;13.70;54.30
8103;DHT22;4094;49.948;11.574;2024-02-26T15:36:36;13.60;54.40
8103;DHT22;4094;49.948;11.574;2024-02-26T15:39:26;13.60;54.50
8103;DHT22;4094;49.948;11.574;2024-02-26T15:42:16;13.60;54.60
8103;DHT22;4094;49.948;11.574;2024-02-26T15:45:07;13.50;54.70
8103;DHT22;4094;49.948;11.574;2024-02-26T15:47:57;13.50;54.80
8103;DHT22;4094;49.948;11.574;2024-02-26T15:50:46;13.50;54.90
8103;DHT22;4094;49.948;11.574;2024-02-26T15:53:36;13.40;55.00
8103;DHT22;4094;49.948;11.574;2024-02-26T15:56:25;13.40;55.10
8103;DHT22;4094;49.948;11.574;2024-02-26T15:59:15;13.40;55.20
8103;DHT22;4094;49.948;11.574;2024-02-26T16:02:05;13.30;55.30
8103;DHT22;4094;49.948;11.574;2024-02-26T16:04:55;13.30;55.40
8103;DHT22;4094;49.948;11.574;2024-02-26T16:07:48;13.30;55.50
8103;DHT22;4094;49.948;11.574;2024-02-26T16:10:38;13.30;55.60
8103;DHT22;4094;49.948;11.574;2024-02-26T16:13:28;13.30;55.70
8103;DHT22;4094;49.948;11.574;2024-02-26T16:16:20;13.20;55.70
8103;DHT22;4094;49.948;11.574;2024-02-26T16:19:15;13.20;55.70
8103;DHT22;4094;49.948;11.574;2024-02-26T16:22:08;13.20;55.80
8103;DHT22;4094;49.948;11.574;2024-02-26T16:24:57;13.20;55.90
8103;DHT22;4094;49.948;11.574;2024-02-26T16:27:46;13.20;55.90
8103;DHT22;4094;49.948;11.574;2024-02-26T16:30:36;13.10;55.80
8103;DHT22;4094;49.948;11.574;2024-02-26T16:33:25;13.10;55.80
8103;DHT22;4094;49.948;11.574;2024-02-26T16:36:16;13.10;55.90
8103;DHT22;4094;49.948;11.574;2024-02-26T16:39:06;13.10;55.90
8103;DHT22;4094;49.948;11.574;2024-02-26T16:41:55;13.00;55.80
8103;DHT22;4094;49.948;11.574;2024-02-26T16:44:45;13.00;55.90
8103;DHT22;4094;49.948;11.574;2024-02-26T16:47:34;13.00;55.90
8103;DHT22;4094;49.948;11.574;2024-02-26T16:50:24;12.90;55.90
8103;DHT22;4094;49.948;11.574;2024-02-26T16:53:15;12.90;56.00
8103;DHT22;4094;49.948;11.574;2024-02-26T16:56:09;12.90;56.10
8103;DHT22;4094;49.948;11.574;2024-02-26T16:58:58;12.80;56.10
8103;DHT22;4094;49.948;11.574;2024-02-26T17:01:48;12.80;56.10
8103;DHT22;4094;49.948;11.574;2024-02-26T17:04:38;12.70;56.10
8103;DHT22;4094;49.948;11.574;2024-02-26T17:07:27;12.70;56.10
8103;DHT22;4094;49.948;11.574;2024-02-26T17:10:18;12.70;56.20
8103;DHT22;4094;49.948;11.574;2024-02-26T17:13:08;12.60;56.30
8103;DHT22;4094;49.948;11.574;2024-02-26T17:15:59;12.60;56.40
8103;DHT22;4094;49.948;11.574;2024-02-26T17:18:48;12.60;56.40
8103;DHT22;4094;49.948;11.574;2024-02-26T17:21:38;12.50;56.40
8103;DHT22;4094;49.948;11.574;2024-02-26T17:24:28;12.50;56.60
8103;DHT22;4094;49.948;11.574;2024-02-26T17:27:19;12.50;56.70
8103;DHT22;4094;49.948;11.574;2024-02-26T17:30:09;12.40;56.80
8103;DHT22;4094;49.948;11.574;2024-02-26T17:32:58;12.40;56.90
8103;DHT22;4094;49.948;11.574;2024-02-26T17:35:48;12.40;57.00
8103;DHT22;4094;49.948;11.574;2024-02-26T17:38:37;12.30;57.10
8103;DHT22;4094;49.948;11.574;2024-02-26T17:41:28;12.30;57.20
8103;DHT22;4094;49.948;11.574;2024-02-26T17:44:19;12.30;57.40
8103;DHT22;4094;49.948;11.574;2024-02-26T17:47:11;12.30;57.60
8103;DHT22;4094;49.948;11.574;2024-02-26T17:50:00;12.30;57.70
8103;DHT22;4094;49.948;11.574;2024-02-26T17:52:51;12.20;57.80
8103;DHT22;4094;49.948;11.574;2024-02-26T17:55:41;12.20;58.40
8103;DHT22;4094;49.948;11.574;2024-02-26T17:58:30;12.20;58.00
8103;DHT22;4094;49.948;11.574;2024-02-26T18:01:21;12.20;58.00
8103;DHT22;4094;49.948;11.574;2024-02-26T18:04:11;12.20;58.10
8103;DHT22;4094;49.948;11.574;2024-02-26T18:07:00;12.20;58.20
8103;DHT22;4094;49.948;11.574;2024-02-26T18:09:51;12.20;58.50
8103;DHT22;4094;49.948;11.574;2024-02-26T18:12:40;12.20;58.50
8103;DHT22;4094;49.948;11.574;2024-02-26T18:15:30;12.10;58.40
8103;DHT22;4094;49.948;11.574;2024-02-26T18:18:21;12.10;58.50
8103;DHT22;4094;49.948;11.574;2024-02-26T18:21:11;12.10;58.60
8103;DHT22;4094;49.948;11.574;2024-02-26T18:24:01;12.10;58.60